createdAt,value
2018-09-27T00:00:21.392Z,11.14
2018-09-27T00:02:50.998Z,11.26
2018-09-27T00:05:21.551Z,11.24
2018-09-27T00:07:51.241Z,11.13
2018-09-27T00:10:20.863Z,11.22
2018-09-27T00:12:50.704Z,10.99
2018-09-27T00:15:20.343Z,11.20
2018-09-27T00:17:49.995Z,11.20
2018-09-27T00:20:20.492Z,11.20
2018-09-27T00:22:50.091Z,11.22
2018-09-27T00:25:20.215Z,11.21
2018-09-27T00:27:50.692Z,11.18
2018-09-27T00:30:20.372Z,10.96
2018-09-27T00:32:50.271Z,11.17
2018-09-27T00:35:20.139Z,11.11
2018-09-27T00:37:49.699Z,11.21
2018-09-27T00:40:19.246Z,11.27
2018-09-27T00:42:49.748Z,11.21
2018-09-27T00:45:19.418Z,11.39
2018-09-27T00:47:49.475Z,11.44
2018-09-27T00:50:21.002Z,11.40
2018-09-27T00:52:50.607Z,11.58
2018-09-27T00:55:20.827Z,11.61
2018-09-27T00:57:51.221Z,11.41
2018-09-27T01:00:20.807Z,11.65
2018-09-27T01:02:50.415Z,11.66
2018-09-27T01:05:20.323Z,11.57
2018-09-27T01:07:50.451Z,11.68
2018-09-27T01:10:20.152Z,11.68
2018-09-27T01:12:50.573Z,11.70
2018-09-27T01:15:20.156Z,11.28
2018-09-27T01:17:49.992Z,11.55
2018-09-27T01:20:20.209Z,11.57
2018-09-27T01:22:50.359Z,11.77
2018-09-27T01:25:20.428Z,11.81
2018-09-27T01:27:50.348Z,11.83
2018-09-27T01:30:19.911Z,11.83
2018-09-27T01:32:49.990Z,11.42
2018-09-27T01:35:20.439Z,11.84
2018-09-27T01:37:49.988Z,11.70
2018-09-27T01:40:19.729Z,11.76
2018-09-27T01:42:49.896Z,11.71
2018-09-27T01:45:19.631Z,11.63
2018-09-27T01:47:49.655Z,11.56
2018-09-27T01:50:20.444Z,11.53
2018-09-27T01:52:50.403Z,11.15
2018-09-27T01:55:20.500Z,11.47
2018-09-27T01:57:50.811Z,11.32
2018-09-27T02:00:20.617Z,11.29
2018-09-27T02:02:50.539Z,11.34
2018-09-27T02:05:20.638Z,10.94
2018-09-27T02:07:50.671Z,11.26
2018-09-27T02:10:20.780Z,11.13
2018-09-27T02:12:51.135Z,10.95
2018-09-27T02:15:21.138Z,11.01
2018-09-27T02:17:51.316Z,11.08
2018-09-27T02:20:21.759Z,11.03
2018-09-27T02:22:51.740Z,10.98
2018-09-27T02:25:22.085Z,10.94
2018-09-27T02:27:51.967Z,10.82
2018-09-27T02:30:22.155Z,10.93
2018-09-27T02:32:52.121Z,10.55
2018-09-27T02:35:22.571Z,10.91
2018-09-27T02:37:52.581Z,10.83
2018-09-27T02:40:22.795Z,10.94
2018-09-27T02:42:52.779Z,10.96
2018-09-27T02:45:22.899Z,10.98
2018-09-27T02:47:52.998Z,10.81
2018-09-27T02:50:22.951Z,11.02
2018-09-27T02:52:52.562Z,11.03
2018-09-27T02:55:22.706Z,11.07
2018-09-27T02:57:52.617Z,10.91
2018-09-27T03:00:22.689Z,10.86
2018-09-27T03:02:52.870Z,11.13
2018-09-27T03:05:23.115Z,11.25
2018-09-27T03:07:52.712Z,11.34
2018-09-27T03:10:23.155Z,11.26
2018-09-27T03:12:53.563Z,11.17
2018-09-27T03:15:23.163Z,11.06
2018-09-27T03:17:53.694Z,10.97
2018-09-27T03:20:23.316Z,11.40
2018-09-27T03:22:53.495Z,11.40
2018-09-27T03:25:23.560Z,11.34
2018-09-27T03:27:53.705Z,11.45
2018-09-27T03:30:23.357Z,11.46
2018-09-27T03:32:53.575Z,11.45
2018-09-27T03:35:23.857Z,11.45
2018-09-27T03:37:53.787Z,11.46
2018-09-27T03:40:24.124Z,11.48
2018-09-27T03:42:54.298Z,11.46
2018-09-27T03:45:23.935Z,11.46
2018-09-27T03:47:55.215Z,11.46
2018-09-27T03:50:26.107Z,11.45
2018-09-27T03:52:56.100Z,11.49
2018-09-27T03:55:26.452Z,11.27
2018-09-27T03:57:56.112Z,11.46
2018-09-27T04:00:25.699Z,11.36
2018-09-27T04:02:55.703Z,11.48
2018-09-27T04:05:25.445Z,11.48
2018-09-27T04:07:58.707Z,11.28
2018-09-27T04:10:29.167Z,11.20
2018-09-27T04:12:59.367Z,11.55
2018-09-27T04:15:29.330Z,11.15
2018-09-27T04:17:59.227Z,11.63
2018-09-27T04:20:29.099Z,11.54
2018-09-27T04:22:59.187Z,11.68
2018-09-27T04:25:29.059Z,11.72
2018-09-27T04:27:58.623Z,11.75
2018-09-27T04:30:30.569Z,11.76
2018-09-27T04:33:01.167Z,11.34
2018-09-27T04:35:32.033Z,11.49
2018-09-27T04:38:01.929Z,11.48
2018-09-27T04:40:32.392Z,11.82
2018-09-27T04:43:02.231Z,11.83
2018-09-27T04:45:32.399Z,11.84
2018-09-27T04:48:02.447Z,11.84
2018-09-27T04:50:32.855Z,11.75
2018-09-27T04:53:02.663Z,11.87
2018-09-27T04:55:32.741Z,11.85
2018-09-27T04:58:02.718Z,11.86
2018-09-27T05:00:32.372Z,11.43
2018-09-27T05:03:02.417Z,11.64
2018-09-27T05:05:33.162Z,11.87
2018-09-27T05:08:03.353Z,11.88
2018-09-27T05:10:33.009Z,11.91
2018-09-27T05:13:03.503Z,11.88
2018-09-27T05:15:33.592Z,11.96
2018-09-27T05:18:07.374Z,11.97
2018-09-27T05:20:37.266Z,11.97
2018-09-27T05:23:06.871Z,11.99
2018-09-27T05:25:36.849Z,12.01
2018-09-27T05:28:06.670Z,12.03
2018-09-27T05:30:36.152Z,11.93
2018-09-27T05:33:05.791Z,12.04
2018-09-27T05:35:36.350Z,12.05
2018-09-27T05:38:06.374Z,12.06
2018-09-27T05:40:35.939Z,12.05
2018-09-27T05:43:05.790Z,12.06
2018-09-27T05:45:35.404Z,12.08
2018-09-27T05:48:05.004Z,12.13
2018-09-27T05:50:35.384Z,12.02
2018-09-27T05:53:05.044Z,12.08
2018-09-27T05:55:34.592Z,12.09
2018-09-27T05:58:04.448Z,12.14
2018-09-27T06:00:34.015Z,12.17
2018-09-27T06:03:03.532Z,12.29
2018-09-27T06:05:33.456Z,12.32
2018-09-27T06:08:03.309Z,12.23
2018-09-27T06:10:32.913Z,12.41
2018-09-27T06:13:02.784Z,12.44
2018-09-27T06:15:32.961Z,12.37
2018-09-27T06:18:02.986Z,12.52
2018-09-27T06:20:32.759Z,12.46
2018-09-27T06:23:02.378Z,12.30
2018-09-27T06:25:31.965Z,12.55
2018-09-27T06:28:01.821Z,12.71
2018-09-27T06:30:31.367Z,12.68
2018-09-27T06:33:00.943Z,12.84
2018-09-27T06:35:30.924Z,12.94
2018-09-27T06:38:00.424Z,12.95
2018-09-27T06:40:30.208Z,13.11
2018-09-27T06:43:00.051Z,13.17
2018-09-27T06:45:30.416Z,13.28
2018-09-27T06:48:00.576Z,13.34
2018-09-27T06:50:30.918Z,13.47
2018-09-27T06:53:00.448Z,13.59
2018-09-27T06:55:30.214Z,13.62
2018-09-27T06:58:00.100Z,13.72
2018-09-27T07:00:29.736Z,13.69
2018-09-27T07:02:59.323Z,14.01
2018-09-27T07:05:29.500Z,13.84
2018-09-27T07:07:59.517Z,14.24
2018-09-27T07:10:29.086Z,14.26
2018-09-27T07:12:58.882Z,14.42
2018-09-27T07:15:28.442Z,14.55
2018-09-27T07:17:58.424Z,14.48
2018-09-27T07:20:28.287Z,14.77
2018-09-27T07:22:58.188Z,14.86
2018-09-27T07:25:28.702Z,14.94
2018-09-27T07:27:59.194Z,15.01
2018-09-27T07:30:28.874Z,15.01
2018-09-27T07:32:58.388Z,15.23
2018-09-27T07:35:28.264Z,14.90
2018-09-27T07:37:57.881Z,15.60
2018-09-27T07:40:27.372Z,15.91
2018-09-27T07:42:57.173Z,16.28
2018-09-27T07:45:26.732Z,16.63
2018-09-27T07:47:56.344Z,17.09
2018-09-27T07:50:26.406Z,17.25
2018-09-27T07:52:55.932Z,17.56
2018-09-27T07:55:25.580Z,17.90
2018-09-27T07:57:55.536Z,18.19
2018-09-27T08:00:25.150Z,18.32
2018-09-27T08:02:54.918Z,18.71
2018-09-27T08:05:24.908Z,18.77
2018-09-27T08:07:54.452Z,18.91
2018-09-27T08:10:24.204Z,18.76
2018-09-27T08:12:54.024Z,18.74
2018-09-27T08:15:23.521Z,18.77
2018-09-27T08:17:53.128Z,18.86
2018-09-27T08:20:23.279Z,19.02
2018-09-27T08:22:52.784Z,19.08
2018-09-27T08:25:22.776Z,18.99
2018-09-27T08:27:52.637Z,18.89
2018-09-27T08:30:22.240Z,18.76
2018-09-27T08:32:51.776Z,18.77
2018-09-27T08:35:22.000Z,18.94
2018-09-27T08:37:51.526Z,19.07
2018-09-27T08:40:21.076Z,19.17
2018-09-27T08:42:50.824Z,19.40
2018-09-27T08:45:20.851Z,19.71
2018-09-27T08:47:50.363Z,19.97
2018-09-27T08:50:20.177Z,19.80
2018-09-27T08:52:49.663Z,20.15
2018-09-27T08:55:19.211Z,20.23
2018-09-27T08:57:49.333Z,20.36
2018-09-27T09:00:18.871Z,20.37
2018-09-27T09:02:48.356Z,20.64
2018-09-27T09:05:18.139Z,20.94
2018-09-27T09:07:48.157Z,21.19
2018-09-27T09:10:18.683Z,21.27
2018-09-27T09:12:48.480Z,21.25
2018-09-27T09:15:18.012Z,21.50
2018-09-27T09:17:53.844Z,21.72
2018-09-27T09:20:27.609Z,21.89
2018-09-27T09:22:58.317Z,22.02
2018-09-27T09:25:32.780Z,21.88
2018-09-27T09:28:04.599Z,21.94
2018-09-27T09:30:35.222Z,21.91
2018-09-27T09:33:06.057Z,21.96
2018-09-27T09:35:36.785Z,21.96
2018-09-27T09:38:07.812Z,22.18
2018-09-27T09:40:37.829Z,22.18
2018-09-27T09:43:08.092Z,22.31
2018-09-27T09:45:39.546Z,22.49
2018-09-27T09:48:09.092Z,22.90
2018-09-27T09:50:40.306Z,23.02
2018-09-27T09:53:12.709Z,22.56
2018-09-27T09:55:44.188Z,22.85
2018-09-27T09:58:15.909Z,23.11
2018-09-27T10:00:46.624Z,23.25
2018-09-27T10:03:17.680Z,23.33
2018-09-27T10:05:52.674Z,23.45
2018-09-27T10:08:24.776Z,23.50
2018-09-27T10:10:56.761Z,23.62
2018-09-27T10:13:28.113Z,23.93
2018-09-27T10:16:00.458Z,24.09
2018-09-27T10:18:31.411Z,24.33
2018-09-27T10:21:01.016Z,24.53
2018-09-27T10:23:31.458Z,24.69
2018-09-27T10:26:01.008Z,24.78
2018-09-27T10:28:30.904Z,24.68
2018-09-27T10:31:00.935Z,24.49
2018-09-27T10:33:31.039Z,24.61
2018-09-27T10:36:00.625Z,24.74
2018-09-27T10:38:31.064Z,25.06
2018-09-27T10:41:01.064Z,25.06
2018-09-27T10:43:31.295Z,25.17
2018-09-27T10:46:01.080Z,25.24
2018-09-27T10:48:32.024Z,25.21
2018-09-27T10:51:01.509Z,25.24
2018-09-27T10:53:31.304Z,25.29
2018-09-27T10:56:00.861Z,25.48
2018-09-27T10:58:30.774Z,25.72
2018-09-27T11:01:00.667Z,25.98
2018-09-27T11:03:30.210Z,26.17
2018-09-27T11:05:59.981Z,26.29
2018-09-27T11:08:29.796Z,26.35
2018-09-27T11:10:59.466Z,26.34
2018-09-27T11:13:29.367Z,26.55
2018-09-27T11:15:59.137Z,26.70
2018-09-27T11:18:28.644Z,26.91
2018-09-27T11:20:58.209Z,27.14
2018-09-27T11:23:28.192Z,27.15
2018-09-27T11:25:57.724Z,27.20
2018-09-27T11:28:31.567Z,27.41
2018-09-27T11:33:07.555Z,27.47
2018-09-27T11:35:37.045Z,27.69
2018-09-27T11:38:07.572Z,27.62
2018-09-27T11:40:37.147Z,27.55
2018-09-27T11:43:07.068Z,27.50
2018-09-27T11:45:37.217Z,27.19
2018-09-27T11:48:06.952Z,27.32
2018-09-27T11:50:36.464Z,27.44
2018-09-27T11:53:06.311Z,27.59
2018-09-27T11:55:35.808Z,27.31
2018-09-27T11:58:05.424Z,27.01
2018-09-27T12:00:35.325Z,27.17
2018-09-27T12:03:05.036Z,27.48
2018-09-27T12:05:34.975Z,27.75
2018-09-27T12:08:04.896Z,28.06
2018-09-27T12:10:34.372Z,27.98
2018-09-27T12:13:03.919Z,28.08
2018-09-27T12:15:33.760Z,27.34
2018-09-27T12:18:03.340Z,26.91
2018-09-27T12:20:32.892Z,26.94
2018-09-27T12:23:02.703Z,27.04
2018-09-27T12:25:32.408Z,27.19
2018-09-27T12:28:02.704Z,27.42
2018-09-27T12:30:33.104Z,27.67
2018-09-27T12:33:02.664Z,27.89
2018-09-27T12:35:35.087Z,28.27
2018-09-27T12:38:04.883Z,28.32
2018-09-27T12:40:34.547Z,28.23
2018-09-27T12:43:05.852Z,28.23
2018-09-27T12:45:35.796Z,28.29
2018-09-27T12:48:05.495Z,28.22
2018-09-27T12:50:35.124Z,28.13
2018-09-27T12:53:05.076Z,28.25
2018-09-27T12:55:36.056Z,28.16
2018-09-27T12:58:06.895Z,28.13
2018-09-27T13:00:37.284Z,27.92
2018-09-27T13:03:06.795Z,27.77
2018-09-27T13:05:37.859Z,27.79
2018-09-27T13:08:07.771Z,27.72
2018-09-27T13:10:37.329Z,27.56
2018-09-27T13:13:07.453Z,27.35
2018-09-27T13:15:44.954Z,26.95
2018-09-27T13:18:24.818Z,26.57
2018-09-27T13:20:54.672Z,26.27
2018-09-27T13:23:25.252Z,25.95
2018-09-27T13:25:54.810Z,25.78
2018-09-27T13:28:25.643Z,25.72
2018-09-27T13:30:55.217Z,25.63
2018-09-27T13:33:24.704Z,25.57
2018-09-27T13:35:55.020Z,25.51
2018-09-27T13:38:24.507Z,25.42
2018-09-27T13:40:54.159Z,25.48
2018-09-27T13:43:28.279Z,25.15
2018-09-27T13:46:01.482Z,25.44
2018-09-27T13:48:32.335Z,25.42
2018-09-27T13:51:04.589Z,25.37
2018-09-27T13:53:37.170Z,25.34
2018-09-27T13:56:08.620Z,25.28
2018-09-27T13:58:38.223Z,25.20
2018-09-27T14:01:09.768Z,25.21
2018-09-27T14:03:39.832Z,25.25
2018-09-27T14:06:10.065Z,25.26
2018-09-27T14:08:39.646Z,25.26
2018-09-27T14:11:11.014Z,25.21
2018-09-27T14:13:40.563Z,25.20
2018-09-27T14:16:10.277Z,25.19
2018-09-27T14:18:40.372Z,25.14
2018-09-27T14:21:09.989Z,25.13
2018-09-27T14:23:39.908Z,25.12
2018-09-27T14:26:09.579Z,25.13
2018-09-27T14:28:39.076Z,25.12
2018-09-27T14:31:11.965Z,25.03
2018-09-27T14:33:45.924Z,25.00
2018-09-27T14:36:16.121Z,25.06
2018-09-27T14:38:46.310Z,25.04
2018-09-27T14:41:15.896Z,24.87
2018-09-27T14:43:45.843Z,24.98
2018-09-27T14:46:15.383Z,24.94
2018-09-27T14:48:44.903Z,24.91
2018-09-27T14:51:14.763Z,24.89
2018-09-27T14:53:52.384Z,24.85
2018-09-27T14:56:24.761Z,23.70
2018-09-27T14:58:58.052Z,24.77
2018-09-27T15:01:29.067Z,24.73
2018-09-27T15:03:59.020Z,24.72
2018-09-27T15:06:28.900Z,24.72
2018-09-27T15:09:00.620Z,24.69
2018-09-27T15:11:30.675Z,24.67
2018-09-27T15:14:00.478Z,24.62
2018-09-27T15:16:31.460Z,24.27
2018-09-27T15:19:01.436Z,24.49
2018-09-27T15:21:31.019Z,24.55
2018-09-27T15:24:01.024Z,24.55
2018-09-27T15:26:30.952Z,24.50
2018-09-27T15:29:00.491Z,24.45
2018-09-27T15:31:30.329Z,24.34
2018-09-27T15:34:00.184Z,24.06
2018-09-27T15:36:29.971Z,24.14
2018-09-27T15:38:59.512Z,24.07
2018-09-27T15:41:29.516Z,24.03
2018-09-27T15:43:59.223Z,23.96
2018-09-27T15:46:28.844Z,23.94
2018-09-27T15:48:58.647Z,23.87
2018-09-27T15:51:28.207Z,23.80
2018-09-27T15:53:57.932Z,23.76
2018-09-27T15:56:28.603Z,23.71
2018-09-27T15:58:58.148Z,23.69
2018-09-27T16:01:27.715Z,23.66
2018-09-27T16:03:58.053Z,23.60
2018-09-27T16:06:27.636Z,23.53
2018-09-27T16:08:57.357Z,23.46
2018-09-27T16:11:29.314Z,23.22
2018-09-27T16:13:58.970Z,23.32
2018-09-27T16:16:28.896Z,23.24
2018-09-27T16:19:03.760Z,23.09
2018-09-27T16:21:33.496Z,23.08
2018-09-27T16:24:03.688Z,22.67
2018-09-27T16:26:36.464Z,22.93
2018-09-27T16:29:06.249Z,22.84
2018-09-27T16:31:36.630Z,22.77
2018-09-27T16:34:06.655Z,22.69
2018-09-27T16:36:36.362Z,22.62
2018-09-27T16:39:09.032Z,22.55
2018-09-27T16:41:40.261Z,22.50
2018-09-27T16:44:16.764Z,22.41
2018-09-27T16:46:47.692Z,22.31
2018-09-27T16:49:18.836Z,22.25
2018-09-27T16:51:48.845Z,22.17
2018-09-27T16:54:18.414Z,22.09
2018-09-27T16:56:48.723Z,22.00
2018-09-27T16:59:19.615Z,21.91
2018-09-27T17:01:49.929Z,21.80
2018-09-27T17:04:20.197Z,21.71
2018-09-27T17:06:50.825Z,21.63
2018-09-27T17:09:20.728Z,21.30
2018-09-27T17:11:50.684Z,21.48
2018-09-27T17:14:20.932Z,21.42
2018-09-27T17:16:50.571Z,21.35
2018-09-27T17:19:21.087Z,21.24
2018-09-27T17:21:50.804Z,21.12
2018-09-27T17:24:22.195Z,21.02
2018-09-27T17:26:52.151Z,20.92
2018-09-27T17:29:22.843Z,20.81
2018-09-27T17:31:52.829Z,20.70
2018-09-27T17:34:23.232Z,20.56
2018-09-27T17:36:53.057Z,20.45
2018-09-27T17:39:23.309Z,20.33
2018-09-27T17:41:53.941Z,20.15
2018-09-27T17:44:23.523Z,20.16
2018-09-27T17:46:53.107Z,19.90
2018-09-27T17:49:22.903Z,20.03
2018-09-27T17:51:52.801Z,19.93
2018-09-27T17:54:22.687Z,19.82
2018-09-27T17:56:52.791Z,19.73
2018-09-27T17:59:22.337Z,19.64
2018-09-27T18:01:52.019Z,19.34
2018-09-27T18:04:21.951Z,19.35
2018-09-27T18:06:52.302Z,19.31
2018-09-27T18:09:22.012Z,19.32
2018-09-27T18:11:52.045Z,19.25
2018-09-27T18:14:22.625Z,19.21
2018-09-27T18:16:52.197Z,19.07
2018-09-27T18:19:22.021Z,19.15
2018-09-27T18:21:51.829Z,19.01
2018-09-27T18:24:21.447Z,18.79
2018-09-27T18:26:51.567Z,19.01
2018-09-27T18:29:21.104Z,18.93
2018-09-27T18:31:51.479Z,18.86
2018-09-27T18:34:21.472Z,18.67
2018-09-27T18:36:51.040Z,18.56
2018-09-27T18:39:20.570Z,18.54
2018-09-27T18:41:50.365Z,18.41
2018-09-27T18:44:19.887Z,18.28
2018-09-27T18:46:50.463Z,18.16
2018-09-27T18:49:20.291Z,18.04
2018-09-27T18:51:51.553Z,17.89
2018-09-27T18:54:21.832Z,17.77
2018-09-27T18:56:51.732Z,17.66
2018-09-27T18:59:21.256Z,17.56
2018-09-27T19:01:51.549Z,17.45
2018-09-27T19:04:21.380Z,17.35
2018-09-27T19:06:50.936Z,17.28
2018-09-27T19:09:20.689Z,17.13
2018-09-27T19:11:51.160Z,17.18
2018-09-27T19:14:20.664Z,17.15
2018-09-27T19:16:50.401Z,17.09
2018-09-27T19:19:20.289Z,17.01
2018-09-27T19:21:49.856Z,16.83
2018-09-27T19:24:19.460Z,16.83
2018-09-27T19:26:49.270Z,16.71
2018-09-27T19:29:18.860Z,16.51
2018-09-27T19:31:48.354Z,16.53
2018-09-27T19:34:18.169Z,16.45
2018-09-27T19:36:48.022Z,16.39
2018-09-27T19:39:17.600Z,16.33
2018-09-27T19:41:47.482Z,16.26
2018-09-27T19:44:16.972Z,16.19
2018-09-27T19:46:46.572Z,16.08
2018-09-27T19:49:16.212Z,15.98
2018-09-27T19:51:45.764Z,15.89
2018-09-27T19:54:16.804Z,15.57
2018-09-27T19:56:46.673Z,15.70
2018-09-27T19:59:16.556Z,15.61
2018-09-27T20:01:46.072Z,15.52
2018-09-27T20:04:16.180Z,15.43
2018-09-27T20:06:45.793Z,15.22
2018-09-27T20:09:15.454Z,15.14
2018-09-27T20:11:46.492Z,15.20
2018-09-27T20:14:16.020Z,15.04
2018-09-27T20:16:45.705Z,15.07
2018-09-27T20:19:15.555Z,14.93
2018-09-27T20:21:46.276Z,14.97
2018-09-27T20:24:16.494Z,14.92
2018-09-27T20:26:46.935Z,14.86
2018-09-27T20:29:17.095Z,14.82
2018-09-27T20:31:46.627Z,14.77
2018-09-27T20:34:16.474Z,14.72
2018-09-27T20:36:46.000Z,14.67
2018-09-27T20:39:16.888Z,14.60
2018-09-27T20:41:46.718Z,14.51
2018-09-27T20:44:16.531Z,14.30
2018-09-27T20:46:46.064Z,14.34
2018-09-27T20:49:16.609Z,14.29
2018-09-27T20:51:46.184Z,14.25
2018-09-27T20:54:16.248Z,14.22
2018-09-27T20:56:46.627Z,14.16
2018-09-27T20:59:16.143Z,14.10
2018-09-27T21:01:45.662Z,13.92
2018-09-27T21:04:15.465Z,13.93
2018-09-27T21:06:45.496Z,13.85
2018-09-27T21:09:15.079Z,13.77
2018-09-27T21:11:45.097Z,13.71
2018-09-27T21:14:15.229Z,13.67
2018-09-27T21:16:44.825Z,13.63
2018-09-27T21:19:14.681Z,13.62
2018-09-27T21:21:44.270Z,13.62
2018-09-27T21:24:14.331Z,13.59
2018-09-27T21:26:44.696Z,13.52
2018-09-27T21:29:14.225Z,13.49
2018-09-27T21:31:43.756Z,13.35
2018-09-27T21:34:14.171Z,13.42
2018-09-27T21:36:43.708Z,13.36
2018-09-27T21:39:13.312Z,13.28
2018-09-27T21:41:43.080Z,13.19
2018-09-27T21:44:12.908Z,13.02
2018-09-27T21:46:42.463Z,13.07
2018-09-27T21:49:12.858Z,12.92
2018-09-27T21:51:42.832Z,13.04
2018-09-27T21:54:13.055Z,13.07
2018-09-27T21:56:43.496Z,13.07
2018-09-27T21:59:13.452Z,13.00
2018-09-27T22:01:43.341Z,12.95
2018-09-27T22:04:13.156Z,12.89
2018-09-27T22:06:43.870Z,12.82
2018-09-27T22:09:13.791Z,12.79
2018-09-27T22:11:43.986Z,12.80
2018-09-27T22:14:14.321Z,12.87
2018-09-27T22:16:44.174Z,12.92
2018-09-27T22:19:14.346Z,12.86
2018-09-27T22:21:44.808Z,12.89
2018-09-27T22:24:14.958Z,13.01
2018-09-27T22:26:45.232Z,13.00
2018-09-27T22:29:15.604Z,12.96
2018-09-27T22:31:46.221Z,12.83
2018-09-27T22:34:16.894Z,12.95
2018-09-27T22:36:46.804Z,12.95
2018-09-27T22:39:17.214Z,12.98
2018-09-27T22:41:47.444Z,12.98
2018-09-27T22:44:17.733Z,12.98
2018-09-27T22:46:48.170Z,12.98
2018-09-27T22:49:18.924Z,12.99
2018-09-27T22:51:49.364Z,12.98
2018-09-27T22:54:19.671Z,12.97
2018-09-27T22:56:50.086Z,12.96
2018-09-27T22:59:20.737Z,12.93
2018-09-27T23:01:51.262Z,12.61
2018-09-27T23:04:21.567Z,12.92
2018-09-27T23:06:52.268Z,12.90
2018-09-27T23:09:22.534Z,12.88
2018-09-27T23:11:52.882Z,12.84
2018-09-27T23:14:23.414Z,12.79
2018-09-27T23:16:53.701Z,12.56
2018-09-27T23:19:24.105Z,12.72
2018-09-27T23:21:54.769Z,12.69
2018-09-27T23:24:25.414Z,12.66
2018-09-27T23:26:55.725Z,12.62
2018-09-27T23:29:26.347Z,12.60
2018-09-27T23:31:56.477Z,12.59
2018-09-27T23:34:26.790Z,12.56
2018-09-27T23:36:57.819Z,12.50
2018-09-27T23:39:28.130Z,12.45
2018-09-27T23:41:58.571Z,12.39
2018-09-27T23:44:29.174Z,12.20
2018-09-27T23:46:59.791Z,12.24
2018-09-27T23:49:30.677Z,12.26
2018-09-27T23:52:01.048Z,12.28
2018-09-27T23:54:32.870Z,12.28
2018-09-27T23:57:03.743Z,12.26
2018-09-27T23:59:33.926Z,12.25
